createdAt,value
2023-08-24T00:01:59.165Z,100.00
2023-08-24T00:04:25.881Z,100.00
2023-08-24T00:06:53.043Z,100.00
2023-08-24T00:09:20.197Z,100.00
2023-08-24T00:11:47.166Z,100.00
2023-08-24T00:14:13.989Z,100.00
2023-08-24T00:16:41.985Z,100.00
2023-08-24T00:19:08.958Z,100.00
2023-08-24T00:21:35.801Z,100.00
2023-08-24T00:24:02.546Z,100.00
2023-08-24T00:26:29.394Z,100.00
2023-08-24T00:28:56.332Z,100.00
2023-08-24T00:31:23.285Z,100.00
2023-08-24T00:33:51.940Z,100.00
2023-08-24T00:36:24.429Z,100.00
2023-08-24T00:38:52.833Z,100.00
2023-08-24T00:41:20.208Z,100.00
2023-08-24T00:43:47.744Z,100.00
2023-08-24T00:46:14.618Z,100.00
2023-08-24T00:48:41.718Z,100.00
2023-08-24T00:51:09.034Z,100.00
2023-08-24T00:53:37.407Z,100.00
2023-08-24T00:56:07.222Z,100.00
2023-08-24T00:58:34.498Z,100.00
2023-08-24T01:01:01.380Z,100.00
2023-08-24T01:03:28.455Z,100.00
2023-08-24T01:05:55.306Z,100.00
2023-08-24T01:08:23.316Z,100.00
2023-08-24T01:10:57.090Z,100.00
2023-08-24T01:13:51.234Z,100.00
2023-08-24T01:16:23.262Z,100.00
2023-08-24T01:18:51.174Z,100.00
2023-08-24T01:21:18.764Z,100.00
2023-08-24T01:24:09.230Z,100.00
2023-08-24T01:26:38.274Z,100.00
2023-08-24T01:29:05.996Z,100.00
2023-08-24T01:31:33.982Z,100.00
2023-08-24T01:34:02.637Z,100.00
2023-08-24T01:36:29.521Z,100.00
2023-08-24T01:39:15.140Z,100.00
2023-08-24T01:41:45.002Z,100.00
2023-08-24T01:44:15.831Z,100.00
2023-08-24T01:46:44.415Z,100.00
2023-08-24T01:49:14.793Z,100.00
2023-08-24T01:51:42.643Z,100.00
2023-08-24T01:54:09.474Z,100.00
2023-08-24T01:56:36.230Z,100.00
2023-08-24T01:59:03.024Z,100.00
2023-08-24T02:01:29.821Z,100.00
2023-08-24T02:03:57.066Z,100.00
2023-08-24T02:06:23.899Z,100.00
2023-08-24T02:08:50.784Z,100.00
2023-08-24T02:11:17.614Z,100.00
2023-08-24T02:13:44.347Z,100.00
2023-08-24T02:16:11.210Z,100.00
2023-08-24T02:18:38.073Z,100.00
2023-08-24T02:21:09.850Z,100.00
2023-08-24T02:23:36.947Z,100.00
2023-08-24T02:26:04.361Z,100.00
2023-08-24T02:28:31.176Z,100.00
2023-08-24T02:31:04.581Z,100.00
2023-08-24T02:33:32.154Z,100.00
2023-08-24T02:35:59.032Z,100.00
2023-08-24T02:38:26.036Z,100.00
2023-08-24T02:41:03.888Z,100.00
2023-08-24T02:43:31.278Z,100.00
2023-08-24T02:46:05.801Z,100.00
2023-08-24T02:48:33.856Z,100.00
2023-08-24T02:51:04.420Z,100.00
2023-08-24T02:53:31.474Z,100.00
2023-08-24T02:55:58.318Z,100.00
2023-08-24T02:58:25.226Z,100.00
2023-08-24T03:00:51.998Z,100.00
2023-08-24T03:03:18.726Z,100.00
2023-08-24T03:06:00.384Z,100.00
2023-08-24T03:08:30.157Z,100.00
2023-08-24T03:10:57.935Z,100.00
2023-08-24T03:13:24.839Z,100.00
2023-08-24T03:15:53.482Z,100.00
2023-08-24T03:18:20.974Z,100.00
2023-08-24T03:20:49.769Z,100.00
2023-08-24T03:23:17.437Z,100.00
2023-08-24T03:25:45.131Z,100.00
2023-08-24T03:28:12.484Z,100.00
2023-08-24T03:30:40.901Z,100.00
2023-08-24T03:33:08.409Z,100.00
2023-08-24T03:35:35.259Z,100.00
2023-08-24T03:38:02.145Z,100.00
2023-08-24T03:40:28.963Z,100.00
2023-08-24T03:42:55.769Z,100.00
2023-08-24T03:45:23.404Z,100.00
2023-08-24T03:47:50.991Z,100.00
2023-08-24T03:50:18.315Z,100.00
2023-08-24T03:52:45.174Z,100.00
2023-08-24T03:55:11.967Z,100.00
2023-08-24T03:57:41.551Z,100.00
2023-08-24T04:00:12.413Z,100.00
2023-08-24T04:02:42.950Z,100.00
2023-08-24T04:05:13.948Z,100.00
2023-08-24T04:07:42.432Z,100.00
2023-08-24T04:10:10.419Z,100.00
2023-08-24T04:12:37.235Z,100.00
2023-08-24T04:15:04.532Z,100.00
2023-08-24T04:17:31.579Z,100.00
2023-08-24T04:19:58.388Z,100.00
2023-08-24T04:22:25.103Z,100.00
2023-08-24T04:24:51.871Z,100.00
2023-08-24T04:27:18.656Z,100.00
2023-08-24T04:29:45.428Z,100.00
2023-08-24T04:32:12.109Z,100.00
2023-08-24T04:34:38.866Z,100.00
2023-08-24T04:37:08.042Z,100.00
2023-08-24T04:39:34.921Z,100.00
2023-08-24T04:42:01.839Z,100.00
2023-08-24T04:44:28.616Z,100.00
2023-08-24T04:46:55.387Z,100.00
2023-08-24T04:49:22.139Z,100.00
2023-08-24T04:51:48.839Z,100.00
2023-08-24T04:54:15.526Z,100.00
2023-08-24T04:56:42.360Z,100.00
2023-08-24T04:59:09.177Z,100.00
2023-08-24T05:01:36.151Z,100.00
2023-08-24T05:04:02.893Z,100.00
2023-08-24T05:06:29.682Z,100.00
2023-08-24T05:08:56.613Z,100.00
2023-08-24T05:11:27.720Z,100.00
2023-08-24T05:13:54.576Z,100.00
2023-08-24T05:16:21.289Z,100.00
2023-08-24T05:18:48.027Z,100.00
2023-08-24T05:21:14.970Z,100.00
2023-08-24T05:23:41.751Z,100.00
2023-08-24T05:26:08.527Z,100.00
2023-08-24T05:28:35.260Z,100.00
2023-08-24T05:31:02.129Z,100.00
2023-08-24T05:33:32.059Z,100.00
2023-08-24T05:35:59.898Z,100.00
2023-08-24T05:38:26.801Z,100.00
2023-08-24T05:40:53.589Z,100.00
2023-08-24T05:43:20.777Z,100.00
2023-08-24T05:45:48.079Z,100.00
2023-08-24T05:48:14.984Z,100.00
2023-08-24T05:50:46.660Z,100.00
2023-08-24T05:53:14.005Z,100.00
2023-08-24T05:55:40.953Z,100.00
2023-08-24T05:58:08.008Z,100.00
2023-08-24T06:00:34.809Z,100.00
2023-08-24T06:03:01.623Z,100.00
2023-08-24T06:05:28.375Z,100.00
2023-08-24T06:07:55.846Z,100.00
2023-08-24T06:10:22.912Z,100.00
2023-08-24T06:12:49.699Z,100.00
2023-08-24T06:15:16.686Z,100.00
2023-08-24T06:17:43.783Z,100.00
2023-08-24T06:20:13.904Z,100.00
2023-08-24T06:22:40.660Z,100.00
2023-08-24T06:25:09.935Z,100.00
2023-08-24T06:27:37.029Z,100.00
2023-08-24T06:30:04.866Z,99.88
2023-08-24T06:32:31.792Z,98.29
2023-08-24T06:34:58.637Z,97.17
2023-08-24T06:37:25.333Z,95.87
2023-08-24T06:39:52.039Z,95.75
2023-08-24T06:42:18.836Z,94.03
2023-08-24T06:44:51.280Z,94.61
2023-08-24T06:47:18.202Z,94.54
2023-08-24T06:49:45.064Z,93.70
2023-08-24T06:52:11.804Z,93.86
2023-08-24T06:54:38.655Z,92.24
2023-08-24T06:57:06.158Z,91.85
2023-08-24T06:59:33.050Z,91.51
2023-08-24T07:01:59.932Z,91.09
2023-08-24T07:04:28.297Z,90.22
2023-08-24T07:06:55.265Z,87.53
2023-08-24T07:09:22.301Z,87.81
2023-08-24T07:11:50.150Z,87.27
2023-08-24T07:14:16.932Z,88.70
2023-08-24T07:16:43.985Z,87.80
2023-08-24T07:19:10.820Z,89.24
2023-08-24T07:21:37.842Z,88.92
2023-08-24T07:24:05.343Z,90.08
2023-08-24T07:26:32.638Z,90.31
2023-08-24T07:28:59.495Z,91.05
2023-08-24T07:31:26.543Z,91.17
2023-08-24T07:33:53.469Z,91.63
2023-08-24T07:36:20.349Z,92.14
2023-08-24T07:38:50.495Z,92.84
2023-08-24T07:41:19.482Z,92.32
2023-08-24T07:43:46.480Z,93.39
2023-08-24T07:46:13.332Z,93.98
2023-08-24T07:48:40.425Z,94.12
2023-08-24T07:51:08.859Z,93.97
2023-08-24T07:53:35.623Z,94.17
2023-08-24T07:56:02.842Z,93.32
2023-08-24T07:58:32.464Z,93.44
2023-08-24T08:01:01.212Z,93.58
2023-08-24T08:03:28.488Z,91.91
2023-08-24T08:05:55.933Z,89.99
2023-08-24T08:08:22.801Z,87.62
2023-08-24T08:10:59.560Z,86.96
2023-08-24T08:13:26.990Z,86.36
2023-08-24T08:15:53.754Z,84.48
2023-08-24T08:18:21.089Z,80.89
2023-08-24T08:20:52.017Z,81.26
2023-08-24T08:23:18.736Z,82.67
2023-08-24T08:25:45.438Z,80.46
2023-08-24T08:28:12.380Z,81.29
2023-08-24T08:30:39.249Z,82.19
2023-08-24T08:33:06.135Z,81.31
2023-08-24T08:35:32.917Z,79.74
2023-08-24T08:37:59.689Z,80.75
2023-08-24T08:40:31.362Z,80.48
2023-08-24T08:43:01.187Z,80.71
2023-08-24T08:45:29.302Z,79.53
2023-08-24T08:48:03.136Z,79.00
2023-08-24T08:50:33.082Z,79.52
2023-08-24T08:52:59.965Z,79.67
2023-08-24T08:55:27.218Z,80.10
2023-08-24T08:57:59.430Z,78.45
2023-08-24T09:00:27.069Z,76.97
2023-08-24T09:02:55.325Z,73.66
2023-08-24T09:05:22.585Z,74.73
2023-08-24T09:07:50.360Z,74.44
2023-08-24T09:10:17.294Z,74.57
2023-08-24T09:12:44.268Z,72.67
2023-08-24T09:15:11.684Z,73.30
2023-08-24T09:17:43.914Z,74.16
2023-08-24T09:20:11.238Z,72.76
2023-08-24T09:22:38.990Z,71.77
2023-08-24T09:25:07.519Z,69.93
2023-08-24T09:27:35.636Z,69.01
2023-08-24T09:30:02.688Z,69.97
2023-08-24T09:32:30.958Z,68.34
2023-08-24T09:35:04.098Z,68.30
2023-08-24T09:37:38.164Z,66.27
2023-08-24T09:40:09.662Z,63.69
2023-08-24T09:42:41.376Z,64.37
2023-08-24T09:45:11.218Z,62.97
2023-08-24T09:47:38.295Z,63.88
2023-08-24T09:50:06.297Z,64.28
2023-08-24T09:52:34.542Z,66.09
2023-08-24T09:55:08.983Z,64.45
2023-08-24T09:57:39.015Z,63.95
2023-08-24T10:00:11.691Z,63.95
2023-08-24T10:02:47.441Z,63.91
2023-08-24T10:05:36.513Z,63.76
2023-08-24T10:08:09.702Z,64.30
2023-08-24T10:10:38.587Z,61.67
2023-08-24T10:13:15.808Z,61.06
2023-08-24T10:15:47.896Z,59.98
2023-08-24T10:18:17.120Z,62.21
2023-08-24T10:20:45.203Z,62.31
2023-08-24T10:23:13.954Z,62.52
2023-08-24T10:25:43.241Z,62.22
2023-08-24T10:28:13.089Z,61.95
2023-08-24T10:30:41.234Z,61.77
2023-08-24T10:33:09.025Z,61.00
2023-08-24T10:35:36.352Z,58.98
2023-08-24T10:38:03.327Z,59.13
2023-08-24T10:40:32.791Z,59.98
2023-08-24T10:43:03.187Z,60.73
2023-08-24T10:45:59.769Z,59.42
2023-08-24T10:48:42.256Z,59.73
2023-08-24T10:51:18.369Z,59.66
2023-08-24T10:53:47.169Z,59.31
2023-08-24T10:56:15.772Z,59.08
2023-08-24T10:58:43.593Z,59.34
2023-08-24T11:01:19.332Z,58.25
2023-08-24T11:03:58.688Z,57.76
2023-08-24T11:06:27.051Z,58.54
2023-08-24T11:09:16.522Z,58.67
2023-08-24T11:11:43.323Z,51.86
2023-08-24T11:14:23.092Z,54.05
2023-08-24T11:16:50.273Z,53.94
2023-08-24T11:19:17.511Z,53.94
2023-08-24T11:21:45.988Z,50.49
2023-08-24T11:24:16.836Z,52.40
2023-08-24T11:26:45.415Z,51.62
2023-08-24T11:29:12.569Z,52.27
2023-08-24T11:31:42.858Z,53.00
2023-08-24T11:34:15.661Z,54.26
2023-08-24T11:36:48.443Z,52.57
2023-08-24T11:39:17.937Z,50.41
2023-08-24T11:41:45.880Z,50.12
2023-08-24T11:44:23.196Z,50.92
2023-08-24T11:46:58.256Z,50.54
2023-08-24T11:49:25.167Z,50.03
2023-08-24T11:51:52.700Z,50.42
2023-08-24T11:54:22.590Z,51.76
2023-08-24T11:56:49.682Z,50.87
2023-08-24T11:59:17.878Z,50.38
2023-08-24T12:01:46.195Z,50.73
2023-08-24T12:04:13.488Z,49.97
2023-08-24T12:06:41.236Z,50.69
2023-08-24T12:09:08.022Z,50.37
2023-08-24T12:11:38.745Z,49.80
2023-08-24T12:14:08.045Z,50.13
2023-08-24T12:16:34.806Z,49.09
2023-08-24T12:19:04.440Z,49.21
2023-08-24T12:21:31.657Z,49.87
2023-08-24T12:24:01.427Z,50.15
2023-08-24T12:26:29.166Z,49.67
2023-08-24T12:29:02.047Z,50.15
2023-08-24T12:31:31.572Z,51.25
2023-08-24T12:34:06.624Z,50.41
2023-08-24T12:36:34.806Z,50.64
2023-08-24T12:39:01.622Z,49.69
2023-08-24T12:41:28.401Z,50.71
2023-08-24T12:43:55.593Z,50.10
2023-08-24T12:46:22.354Z,51.47
2023-08-24T12:48:49.127Z,52.47
2023-08-24T12:51:15.809Z,52.05
2023-08-24T12:53:42.655Z,49.93
2023-08-24T12:56:09.476Z,48.71
2023-08-24T12:58:36.253Z,48.86
2023-08-24T13:01:03.972Z,48.68
2023-08-24T13:03:30.711Z,47.76
2023-08-24T13:06:03.238Z,48.20
2023-08-24T13:08:36.282Z,47.91
2023-08-24T13:11:03.831Z,47.98
2023-08-24T13:13:30.530Z,48.24
2023-08-24T13:15:58.092Z,47.87
2023-08-24T13:18:26.781Z,47.56
2023-08-24T13:20:53.792Z,47.23
2023-08-24T13:23:20.495Z,46.82
2023-08-24T13:25:47.223Z,47.21
2023-08-24T13:28:13.910Z,47.86
2023-08-24T13:30:41.820Z,48.11
2023-08-24T13:33:08.554Z,47.87
2023-08-24T13:35:36.024Z,47.99
2023-08-24T13:38:02.806Z,48.99
2023-08-24T13:40:29.519Z,49.46
2023-08-24T13:42:57.451Z,50.36
2023-08-24T13:45:24.277Z,50.35
2023-08-24T13:47:51.212Z,50.26
2023-08-24T13:50:17.993Z,50.36
2023-08-24T13:52:44.831Z,50.97
2023-08-24T13:55:13.227Z,50.92
2023-08-24T13:57:40.489Z,51.23
2023-08-24T14:00:10.218Z,52.07
2023-08-24T14:02:40.125Z,51.84
2023-08-24T14:05:10.359Z,51.08
2023-08-24T14:07:37.278Z,50.74
2023-08-24T14:10:06.670Z,51.00
2023-08-24T14:12:33.846Z,51.27
2023-08-24T14:15:01.376Z,51.58
2023-08-24T14:17:28.171Z,51.97
2023-08-24T14:19:55.060Z,52.07
2023-08-24T14:22:21.732Z,52.36
2023-08-24T14:24:48.412Z,52.39
2023-08-24T14:27:15.066Z,51.85
2023-08-24T14:29:41.783Z,51.73
2023-08-24T14:32:08.466Z,51.69
2023-08-24T14:34:35.845Z,52.75
2023-08-24T14:37:02.588Z,53.33
2023-08-24T14:39:29.365Z,53.13
2023-08-24T14:41:56.145Z,53.57
2023-08-24T14:44:23.023Z,54.03
2023-08-24T14:46:49.961Z,53.15
2023-08-24T14:49:20.282Z,52.02
2023-08-24T14:51:48.160Z,52.15
2023-08-24T14:54:16.138Z,53.10
2023-08-24T14:56:43.151Z,53.37
2023-08-24T14:59:09.930Z,53.14
2023-08-24T15:01:36.859Z,53.19
2023-08-24T15:04:03.893Z,54.04
2023-08-24T15:06:30.629Z,54.64
2023-08-24T15:08:59.208Z,55.31
2023-08-24T15:11:26.058Z,55.55
2023-08-24T15:13:54.017Z,55.48
2023-08-24T15:16:20.812Z,54.44
2023-08-24T15:18:47.557Z,54.88
2023-08-24T15:21:16.167Z,54.98
2023-08-24T15:23:43.115Z,53.88
2023-08-24T15:26:09.978Z,53.35
2023-08-24T15:28:38.545Z,52.68
2023-08-24T15:31:06.140Z,52.43
2023-08-24T15:33:33.448Z,52.64
2023-08-24T15:36:00.401Z,53.16
2023-08-24T15:38:27.176Z,53.81
2023-08-24T15:40:57.315Z,54.51
2023-08-24T15:43:24.086Z,54.48
2023-08-24T15:45:52.875Z,54.73
2023-08-24T15:48:19.660Z,54.50
2023-08-24T15:50:46.597Z,54.90
2023-08-24T15:53:13.339Z,55.62
2023-08-24T15:55:40.103Z,56.52
2023-08-24T15:58:06.866Z,58.21
2023-08-24T16:00:34.794Z,58.68
2023-08-24T16:03:01.517Z,60.33
2023-08-24T16:05:28.437Z,60.39
2023-08-24T16:07:57.921Z,60.38
2023-08-24T16:10:25.245Z,62.45
2023-08-24T16:12:52.013Z,63.08
2023-08-24T16:15:19.009Z,65.02
2023-08-24T16:17:45.788Z,65.55
2023-08-24T16:20:12.891Z,66.76
2023-08-24T16:22:40.393Z,67.52
2023-08-24T16:25:08.161Z,69.70
2023-08-24T16:27:35.655Z,72.42
2023-08-24T16:30:04.393Z,74.78
2023-08-24T16:32:31.564Z,76.04
2023-08-24T16:34:58.463Z,74.98
2023-08-24T16:37:25.232Z,74.30
2023-08-24T16:39:52.046Z,74.74
2023-08-24T16:42:19.463Z,75.10
2023-08-24T16:44:47.523Z,75.30
2023-08-24T16:47:14.827Z,75.57
2023-08-24T16:49:41.655Z,75.96
2023-08-24T16:52:08.365Z,75.64
2023-08-24T16:54:35.092Z,75.56
2023-08-24T16:57:01.847Z,77.39
2023-08-24T16:59:28.821Z,78.66
2023-08-24T17:01:55.539Z,79.26
2023-08-24T17:04:22.860Z,79.05
2023-08-24T17:06:49.737Z,79.00
2023-08-24T17:09:16.521Z,78.56
2023-08-24T17:11:43.365Z,78.98
2023-08-24T17:14:10.107Z,78.87
2023-08-24T17:16:36.942Z,79.51
2023-08-24T17:19:03.787Z,79.47
2023-08-24T17:21:30.599Z,79.44
2023-08-24T17:23:58.058Z,79.90
2023-08-24T17:26:24.894Z,79.50
2023-08-24T17:28:51.833Z,79.74
2023-08-24T17:31:18.943Z,79.71
2023-08-24T17:33:45.738Z,79.27
2023-08-24T17:36:12.475Z,78.91
2023-08-24T17:38:39.192Z,78.29
2023-08-24T17:41:07.839Z,77.49
2023-08-24T17:43:35.489Z,77.52
2023-08-24T17:46:03.530Z,77.89
2023-08-24T17:48:31.512Z,78.30
2023-08-24T17:51:00.355Z,77.54
2023-08-24T17:53:28.963Z,77.65
2023-08-24T17:55:56.372Z,77.96
2023-08-24T17:58:23.949Z,78.22
2023-08-24T18:00:51.138Z,78.59
2023-08-24T18:03:18.761Z,79.20
2023-08-24T18:05:46.008Z,79.60
2023-08-24T18:08:13.349Z,79.89
2023-08-24T18:10:40.315Z,80.36
2023-08-24T18:13:07.304Z,80.27
2023-08-24T18:15:43.081Z,80.77
2023-08-24T18:18:09.877Z,81.54
2023-08-24T18:20:36.655Z,81.87
2023-08-24T18:23:03.573Z,82.17
2023-08-24T18:25:30.312Z,82.74
2023-08-24T18:27:57.306Z,82.93
2023-08-24T18:30:24.391Z,82.92
2023-08-24T18:32:51.152Z,82.94
2023-08-24T18:35:18.049Z,83.02
2023-08-24T18:37:44.801Z,83.41
2023-08-24T18:40:11.582Z,83.58
2023-08-24T18:42:38.578Z,83.79
2023-08-24T18:45:06.676Z,83.84
2023-08-24T18:47:33.864Z,84.06
2023-08-24T18:50:00.857Z,84.30
2023-08-24T18:52:28.784Z,84.34
2023-08-24T18:54:57.353Z,85.29
2023-08-24T18:57:24.258Z,85.85
2023-08-24T18:59:51.300Z,86.63
2023-08-24T19:02:19.567Z,86.29
2023-08-24T19:04:46.488Z,86.22
2023-08-24T19:07:13.309Z,86.09
2023-08-24T19:09:40.200Z,86.75
2023-08-24T19:12:07.262Z,87.49
2023-08-24T19:14:36.780Z,89.12
2023-08-24T19:17:04.776Z,89.57
2023-08-24T19:19:31.794Z,88.78
2023-08-24T19:21:58.694Z,87.93
2023-08-24T19:24:25.516Z,87.08
2023-08-24T19:26:52.448Z,86.89
2023-08-24T19:29:19.899Z,86.65
2023-08-24T19:31:47.275Z,85.73
2023-08-24T19:34:14.295Z,84.88
2023-08-24T19:36:41.120Z,88.37
2023-08-24T19:39:07.824Z,100.00
2023-08-24T19:41:40.875Z,100.00
2023-08-24T19:44:13.569Z,100.00
2023-08-24T19:46:40.307Z,100.00
2023-08-24T19:49:08.777Z,100.00
2023-08-24T19:51:35.835Z,100.00
2023-08-24T19:54:02.536Z,100.00
2023-08-24T19:56:29.546Z,100.00
2023-08-24T19:58:56.279Z,100.00
2023-08-24T20:01:23.056Z,100.00
2023-08-24T20:03:49.929Z,100.00
2023-08-24T20:06:27.259Z,100.00
2023-08-24T20:08:55.405Z,100.00
2023-08-24T20:11:22.301Z,100.00
2023-08-24T20:13:49.166Z,100.00
2023-08-24T20:16:16.503Z,100.00
2023-08-24T20:18:44.891Z,100.00
2023-08-24T20:21:11.896Z,100.00
2023-08-24T20:23:42.095Z,100.00
2023-08-24T20:26:13.153Z,100.00
2023-08-24T20:28:41.159Z,100.00
2023-08-24T20:31:09.209Z,100.00
2023-08-24T20:33:36.858Z,100.00
2023-08-24T20:36:05.405Z,100.00
2023-08-24T20:38:32.611Z,100.00
2023-08-24T20:41:03.799Z,100.00
2023-08-24T20:43:31.705Z,100.00
2023-08-24T20:45:58.623Z,100.00
2023-08-24T20:48:25.524Z,100.00
2023-08-24T20:50:56.904Z,100.00
2023-08-24T20:53:24.701Z,100.00
2023-08-24T20:55:52.346Z,100.00
2023-08-24T20:58:19.201Z,100.00
2023-08-24T21:00:46.312Z,100.00
2023-08-24T21:03:13.400Z,100.00
2023-08-24T21:05:40.363Z,100.00
2023-08-24T21:08:07.150Z,100.00
2023-08-24T21:10:34.063Z,100.00
2023-08-24T21:13:01.855Z,100.00
2023-08-24T21:15:28.615Z,100.00
2023-08-24T21:17:55.535Z,100.00
2023-08-24T21:20:23.074Z,100.00
2023-08-24T21:22:49.798Z,100.00
2023-08-24T21:25:16.862Z,100.00
2023-08-24T21:27:43.597Z,100.00
2023-08-24T21:30:10.882Z,100.00
2023-08-24T21:32:37.833Z,100.00
2023-08-24T21:35:05.017Z,100.00
2023-08-24T21:37:33.043Z,100.00
2023-08-24T21:40:01.225Z,100.00
2023-08-24T21:42:28.100Z,100.00
2023-08-24T21:44:54.811Z,100.00
2023-08-24T21:47:21.565Z,100.00
2023-08-24T21:49:48.413Z,100.00
2023-08-24T21:52:15.195Z,100.00
2023-08-24T21:54:41.924Z,100.00
2023-08-24T21:57:08.739Z,100.00
2023-08-24T21:59:35.529Z,100.00
2023-08-24T22:02:02.337Z,100.00
2023-08-24T22:04:29.127Z,100.00
2023-08-24T22:06:55.901Z,100.00
2023-08-24T22:09:23.362Z,100.00
2023-08-24T22:11:50.123Z,100.00
2023-08-24T22:14:16.839Z,100.00
2023-08-24T22:16:43.619Z,100.00
2023-08-24T22:19:21.352Z,100.00
2023-08-24T22:21:53.146Z,100.00
2023-08-24T22:24:19.889Z,100.00
2023-08-24T22:26:46.623Z,100.00
2023-08-24T22:29:13.432Z,100.00
2023-08-24T22:31:40.265Z,100.00
2023-08-24T22:34:07.115Z,100.00
2023-08-24T22:36:34.886Z,100.00
2023-08-24T22:39:01.849Z,100.00
2023-08-24T22:41:28.690Z,100.00
2023-08-24T22:43:55.505Z,100.00
2023-08-24T22:46:22.382Z,100.00
2023-08-24T22:48:49.393Z,100.00
2023-08-24T22:51:16.219Z,100.00
2023-08-24T22:53:42.987Z,100.00
2023-08-24T22:56:09.727Z,100.00
2023-08-24T22:58:36.504Z,100.00
2023-08-24T23:01:14.705Z,100.00
2023-08-24T23:03:41.651Z,100.00
2023-08-24T23:06:14.531Z,100.00
2023-08-24T23:08:42.887Z,100.00
2023-08-24T23:11:10.394Z,100.00
2023-08-24T23:13:37.153Z,100.00
2023-08-24T23:16:06.859Z,100.00
2023-08-24T23:18:33.858Z,100.00
2023-08-24T23:21:01.254Z,100.00
2023-08-24T23:23:28.392Z,100.00
2023-08-24T23:25:55.261Z,100.00
2023-08-24T23:28:22.185Z,100.00
2023-08-24T23:30:49.105Z,100.00
2023-08-24T23:33:16.120Z,100.00
2023-08-24T23:35:46.095Z,100.00
2023-08-24T23:38:12.885Z,100.00
2023-08-24T23:40:39.641Z,100.00
2023-08-24T23:43:06.447Z,100.00
2023-08-24T23:45:33.416Z,100.00
2023-08-24T23:48:00.382Z,100.00
2023-08-24T23:50:28.270Z,100.00
2023-08-24T23:52:55.117Z,100.00
2023-08-24T23:55:21.951Z,100.00
2023-08-24T23:57:48.692Z,100.00
